sensor_id;sensor_type;location;lat;lon;timestamp;P1;durP1;ratioP1;P2;durP2;ratioP2
13067;SDS011;6600;51.362;6.686;2023-04-24T00:00:04;0.30;;;0.30;;
13067;SDS011;6600;51.362;6.686;2023-04-24T00:02:31;0.30;;;0.30;;
13067;SDS011;6600;51.362;6.686;2023-04-24T00:04:57;0.40;;;0.40;;
13067;SDS011;6600;51.362;6.686;2023-04-24T00:07:28;0.60;;;0.60;;
13067;SDS011;6600;51.362;6.686;2023-04-24T00:09:54;0.27;;;0.20;;
13067;SDS011;6600;51.362;6.686;2023-04-24T00:12:19;0.50;;;0.20;;
13067;SDS011;6600;51.362;6.686;2023-04-24T00:14:45;0.53;;;0.50;;
13067;SDS011;6600;51.362;6.686;2023-04-24T00:17:10;0.63;;;0.63;;
13067;SDS011;6600;51.362;6.686;2023-04-24T00:19:35;0.70;;;0.57;;
13067;SDS011;6600;51.362;6.686;2023-04-24T00:22:01;0.33;;;0.30;;
13067;SDS011;6600;51.362;6.686;2023-04-24T00:24:27;0.33;;;0.30;;
13067;SDS011;6600;51.362;6.686;2023-04-24T00:26:52;0.60;;;0.60;;
13067;SDS011;6600;51.362;6.686;2023-04-24T00:29:18;0.70;;;0.70;;
13067;SDS011;6600;51.362;6.686;2023-04-24T00:31:43;1.03;;;0.60;;
13067;SDS011;6600;51.362;6.686;2023-04-24T00:34:08;0.50;;;0.50;;
13067;SDS011;6600;51.362;6.686;2023-04-24T00:36:35;0.60;;;0.60;;
13067;SDS011;6600;51.362;6.686;2023-04-24T00:39:00;0.70;;;0.70;;
13067;SDS011;6600;51.362;6.686;2023-04-24T00:41:26;0.50;;;0.50;;
13067;SDS011;6600;51.362;6.686;2023-04-24T00:43:51;1.07;;;0.97;;
13067;SDS011;6600;51.362;6.686;2023-04-24T00:46:17;1.20;;;1.10;;
13067;SDS011;6600;51.362;6.686;2023-04-24T00:48:43;1.30;;;1.03;;
13067;SDS011;6600;51.362;6.686;2023-04-24T00:51:09;1.37;;;1.00;;
13067;SDS011;6600;51.362;6.686;2023-04-24T00:53:34;3.13;;;1.50;;
13067;SDS011;6600;51.362;6.686;2023-04-24T00:56:00;1.37;;;1.07;;
13067;SDS011;6600;51.362;6.686;2023-04-24T00:58:26;1.17;;;1.07;;
13067;SDS011;6600;51.362;6.686;2023-04-24T01:00:52;2.03;;;1.20;;
13067;SDS011;6600;51.362;6.686;2023-04-24T01:03:21;2.23;;;1.63;;
13067;SDS011;6600;51.362;6.686;2023-04-24T01:05:49;1.70;;;1.20;;
13067;SDS011;6600;51.362;6.686;2023-04-24T01:08:14;1.20;;;1.13;;
13067;SDS011;6600;51.362;6.686;2023-04-24T01:10:40;1.97;;;1.57;;
13067;SDS011;6600;51.362;6.686;2023-04-24T01:13:07;5.03;;;1.67;;
13067;SDS011;6600;51.362;6.686;2023-04-24T01:15:33;2.40;;;1.70;;
13067;SDS011;6600;51.362;6.686;2023-04-24T01:17:59;2.80;;;1.53;;
13067;SDS011;6600;51.362;6.686;2023-04-24T01:20:24;2.20;;;1.40;;
13067;SDS011;6600;51.362;6.686;2023-04-24T01:22:51;2.10;;;1.50;;
13067;SDS011;6600;51.362;6.686;2023-04-24T01:25:17;1.87;;;1.23;;
13067;SDS011;6600;51.362;6.686;2023-04-24T01:27:43;1.50;;;1.33;;
13067;SDS011;6600;51.362;6.686;2023-04-24T01:30:08;1.53;;;1.37;;
13067;SDS011;6600;51.362;6.686;2023-04-24T01:32:34;2.13;;;1.70;;
13067;SDS011;6600;51.362;6.686;2023-04-24T01:35:01;1.40;;;1.30;;
13067;SDS011;6600;51.362;6.686;2023-04-24T01:37:27;2.00;;;1.53;;
13067;SDS011;6600;51.362;6.686;2023-04-24T01:39:52;2.90;;;1.37;;
13067;SDS011;6600;51.362;6.686;2023-04-24T01:42:17;1.93;;;1.60;;
13067;SDS011;6600;51.362;6.686;2023-04-24T01:44:43;1.53;;;1.20;;
13067;SDS011;6600;51.362;6.686;2023-04-24T01:47:09;3.83;;;2.20;;
13067;SDS011;6600;51.362;6.686;2023-04-24T01:49:35;3.77;;;2.13;;
13067;SDS011;6600;51.362;6.686;2023-04-24T01:52:00;1.80;;;1.60;;
13067;SDS011;6600;51.362;6.686;2023-04-24T01:54:25;2.93;;;1.83;;
13067;SDS011;6600;51.362;6.686;2023-04-24T01:56:51;2.53;;;1.77;;
13067;SDS011;6600;51.362;6.686;2023-04-24T01:59:16;4.10;;;2.10;;
13067;SDS011;6600;51.362;6.686;2023-04-24T02:01:42;5.63;;;2.47;;
13067;SDS011;6600;51.362;6.686;2023-04-24T02:04:08;1.67;;;1.33;;
13067;SDS011;6600;51.362;6.686;2023-04-24T02:06:33;2.87;;;1.87;;
13067;SDS011;6600;51.362;6.686;2023-04-24T02:08:59;4.67;;;2.50;;
13067;SDS011;6600;51.362;6.686;2023-04-24T02:11:25;2.93;;;2.00;;
13067;SDS011;6600;51.362;6.686;2023-04-24T02:13:50;2.83;;;2.13;;
13067;SDS011;6600;51.362;6.686;2023-04-24T02:16:16;6.50;;;2.40;;
13067;SDS011;6600;51.362;6.686;2023-04-24T02:18:42;5.60;;;2.17;;
13067;SDS011;6600;51.362;6.686;2023-04-24T02:21:07;3.97;;;2.00;;
13067;SDS011;6600;51.362;6.686;2023-04-24T02:23:33;1.93;;;1.67;;
13067;SDS011;6600;51.362;6.686;2023-04-24T02:25:58;2.73;;;2.30;;
13067;SDS011;6600;51.362;6.686;2023-04-24T02:28:23;2.93;;;2.50;;
13067;SDS011;6600;51.362;6.686;2023-04-24T02:30:49;4.57;;;2.27;;
13067;SDS011;6600;51.362;6.686;2023-04-24T02:33:15;5.87;;;2.90;;
13067;SDS011;6600;51.362;6.686;2023-04-24T02:35:40;3.47;;;2.53;;
13067;SDS011;6600;51.362;6.686;2023-04-24T02:38:06;4.13;;;2.33;;
13067;SDS011;6600;51.362;6.686;2023-04-24T02:40:31;3.47;;;2.17;;
13067;SDS011;6600;51.362;6.686;2023-04-24T02:42:57;3.03;;;2.73;;
13067;SDS011;6600;51.362;6.686;2023-04-24T02:45:22;3.10;;;2.17;;
13067;SDS011;6600;51.362;6.686;2023-04-24T02:47:49;2.77;;;2.53;;
13067;SDS011;6600;51.362;6.686;2023-04-24T02:50:14;3.30;;;2.50;;
13067;SDS011;6600;51.362;6.686;2023-04-24T02:52:39;3.90;;;2.60;;
13067;SDS011;6600;51.362;6.686;2023-04-24T02:55:05;5.03;;;2.93;;
13067;SDS011;6600;51.362;6.686;2023-04-24T02:57:30;2.87;;;2.30;;
13067;SDS011;6600;51.362;6.686;2023-04-24T02:59:56;4.13;;;3.10;;
13067;SDS011;6600;51.362;6.686;2023-04-24T03:02:21;3.33;;;2.87;;
13067;SDS011;6600;51.362;6.686;2023-04-24T03:04:46;6.43;;;2.87;;
13067;SDS011;6600;51.362;6.686;2023-04-24T03:07:13;4.33;;;2.80;;
13067;SDS011;6600;51.362;6.686;2023-04-24T03:09:39;5.57;;;3.10;;
13067;SDS011;6600;51.362;6.686;2023-04-24T03:12:05;4.70;;;3.40;;
13067;SDS011;6600;51.362;6.686;2023-04-24T03:14:30;5.67;;;3.07;;
13067;SDS011;6600;51.362;6.686;2023-04-24T03:16:56;4.73;;;2.70;;
13067;SDS011;6600;51.362;6.686;2023-04-24T03:19:21;4.87;;;3.50;;
13067;SDS011;6600;51.362;6.686;2023-04-24T03:21:47;2.97;;;2.47;;
13067;SDS011;6600;51.362;6.686;2023-04-24T03:24:12;7.83;;;3.47;;
13067;SDS011;6600;51.362;6.686;2023-04-24T03:26:38;4.27;;;2.93;;
13067;SDS011;6600;51.362;6.686;2023-04-24T03:29:03;6.23;;;3.13;;
13067;SDS011;6600;51.362;6.686;2023-04-24T03:31:28;5.27;;;3.27;;
13067;SDS011;6600;51.362;6.686;2023-04-24T03:33:54;4.03;;;2.40;;
13067;SDS011;6600;51.362;6.686;2023-04-24T03:36:19;3.37;;;2.50;;
13067;SDS011;6600;51.362;6.686;2023-04-24T03:38:45;4.43;;;3.03;;
13067;SDS011;6600;51.362;6.686;2023-04-24T03:41:10;7.07;;;3.37;;
13067;SDS011;6600;51.362;6.686;2023-04-24T03:43:36;4.83;;;2.50;;
13067;SDS011;6600;51.362;6.686;2023-04-24T03:46:02;4.23;;;2.87;;
13067;SDS011;6600;51.362;6.686;2023-04-24T03:48:28;4.40;;;2.70;;
13067;SDS011;6600;51.362;6.686;2023-04-24T03:50:53;7.00;;;2.93;;
13067;SDS011;6600;51.362;6.686;2023-04-24T03:53:18;5.80;;;3.03;;
13067;SDS011;6600;51.362;6.686;2023-04-24T03:55:44;3.87;;;2.57;;
13067;SDS011;6600;51.362;6.686;2023-04-24T03:58:10;5.43;;;3.20;;
13067;SDS011;6600;51.362;6.686;2023-04-24T04:00:36;4.27;;;2.23;;
13067;SDS011;6600;51.362;6.686;2023-04-24T04:03:02;4.67;;;2.50;;
13067;SDS011;6600;51.362;6.686;2023-04-24T04:05:28;5.30;;;2.63;;
13067;SDS011;6600;51.362;6.686;2023-04-24T04:07:53;5.33;;;2.70;;
13067;SDS011;6600;51.362;6.686;2023-04-24T04:10:19;5.30;;;3.33;;
13067;SDS011;6600;51.362;6.686;2023-04-24T04:12:44;4.67;;;2.70;;
13067;SDS011;6600;51.362;6.686;2023-04-24T04:15:10;4.87;;;3.23;;
13067;SDS011;6600;51.362;6.686;2023-04-24T04:17:35;3.60;;;2.50;;
13067;SDS011;6600;51.362;6.686;2023-04-24T04:20:02;5.30;;;3.13;;
13067;SDS011;6600;51.362;6.686;2023-04-24T04:22:32;4.63;;;3.10;;
13067;SDS011;6600;51.362;6.686;2023-04-24T04:24:57;4.30;;;2.80;;
13067;SDS011;6600;51.362;6.686;2023-04-24T04:27:22;3.53;;;2.37;;
13067;SDS011;6600;51.362;6.686;2023-04-24T04:29:48;6.27;;;2.93;;
13067;SDS011;6600;51.362;6.686;2023-04-24T04:32:13;3.10;;;2.60;;
13067;SDS011;6600;51.362;6.686;2023-04-24T04:34:38;5.03;;;2.57;;
13067;SDS011;6600;51.362;6.686;2023-04-24T04:37:04;3.77;;;2.30;;
13067;SDS011;6600;51.362;6.686;2023-04-24T04:39:30;3.00;;;2.03;;
13067;SDS011;6600;51.362;6.686;2023-04-24T04:41:56;4.17;;;2.57;;
13067;SDS011;6600;51.362;6.686;2023-04-24T04:44:21;4.30;;;2.90;;
13067;SDS011;6600;51.362;6.686;2023-04-24T04:46:48;2.43;;;2.13;;
13067;SDS011;6600;51.362;6.686;2023-04-24T04:49:14;3.17;;;2.37;;
13067;SDS011;6600;51.362;6.686;2023-04-24T04:51:41;2.53;;;1.80;;
13067;SDS011;6600;51.362;6.686;2023-04-24T04:54:07;5.43;;;2.57;;
13067;SDS011;6600;51.362;6.686;2023-04-24T04:56:32;4.43;;;2.80;;
13067;SDS011;6600;51.362;6.686;2023-04-24T04:58:58;3.57;;;2.40;;
13067;SDS011;6600;51.362;6.686;2023-04-24T05:01:24;2.97;;;1.87;;
13067;SDS011;6600;51.362;6.686;2023-04-24T05:03:50;5.27;;;2.70;;
13067;SDS011;6600;51.362;6.686;2023-04-24T05:06:15;4.00;;;2.37;;
13067;SDS011;6600;51.362;6.686;2023-04-24T05:08:41;2.63;;;2.40;;
13067;SDS011;6600;51.362;6.686;2023-04-24T05:11:06;4.43;;;2.30;;
13067;SDS011;6600;51.362;6.686;2023-04-24T05:13:31;4.10;;;2.03;;
13067;SDS011;6600;51.362;6.686;2023-04-24T05:15:57;2.63;;;1.50;;
13067;SDS011;6600;51.362;6.686;2023-04-24T05:18:23;3.17;;;2.77;;
13067;SDS011;6600;51.362;6.686;2023-04-24T05:20:48;3.53;;;2.40;;
13067;SDS011;6600;51.362;6.686;2023-04-24T05:23:13;3.20;;;2.30;;
13067;SDS011;6600;51.362;6.686;2023-04-24T05:25:39;4.20;;;2.50;;
13067;SDS011;6600;51.362;6.686;2023-04-24T05:28:05;4.10;;;2.30;;
13067;SDS011;6600;51.362;6.686;2023-04-24T05:30:30;3.70;;;2.40;;
13067;SDS011;6600;51.362;6.686;2023-04-24T05:32:56;3.30;;;2.17;;
13067;SDS011;6600;51.362;6.686;2023-04-24T05:35:21;3.20;;;2.10;;
13067;SDS011;6600;51.362;6.686;2023-04-24T05:37:46;1.67;;;1.57;;
13067;SDS011;6600;51.362;6.686;2023-04-24T05:40:12;4.50;;;2.27;;
13067;SDS011;6600;51.362;6.686;2023-04-24T05:42:37;3.20;;;1.90;;
13067;SDS011;6600;51.362;6.686;2023-04-24T05:45:03;3.93;;;2.53;;
13067;SDS011;6600;51.362;6.686;2023-04-24T05:47:29;2.70;;;2.17;;
13067;SDS011;6600;51.362;6.686;2023-04-24T05:49:54;2.67;;;2.47;;
13067;SDS011;6600;51.362;6.686;2023-04-24T05:52:20;4.07;;;2.40;;
13067;SDS011;6600;51.362;6.686;2023-04-24T05:54:45;4.67;;;2.97;;
13067;SDS011;6600;51.362;6.686;2023-04-24T05:57:10;3.83;;;2.30;;
13067;SDS011;6600;51.362;6.686;2023-04-24T05:59:37;3.17;;;1.90;;
13067;SDS011;6600;51.362;6.686;2023-04-24T06:02:06;5.53;;;2.37;;
13067;SDS011;6600;51.362;6.686;2023-04-24T06:04:32;4.33;;;2.10;;
13067;SDS011;6600;51.362;6.686;2023-04-24T06:06:57;5.27;;;1.90;;
13067;SDS011;6600;51.362;6.686;2023-04-24T06:09:23;3.83;;;1.93;;
13067;SDS011;6600;51.362;6.686;2023-04-24T06:11:49;2.27;;;2.07;;
13067;SDS011;6600;51.362;6.686;2023-04-24T06:14:14;2.27;;;2.07;;
13067;SDS011;6600;51.362;6.686;2023-04-24T06:16:41;4.73;;;2.40;;
13067;SDS011;6600;51.362;6.686;2023-04-24T06:19:07;3.07;;;2.20;;
13067;SDS011;6600;51.362;6.686;2023-04-24T06:21:33;3.87;;;2.27;;
13067;SDS011;6600;51.362;6.686;2023-04-24T06:23:58;3.60;;;1.93;;
13067;SDS011;6600;51.362;6.686;2023-04-24T06:26:23;3.73;;;2.20;;
13067;SDS011;6600;51.362;6.686;2023-04-24T06:28:51;2.20;;;1.63;;
13067;SDS011;6600;51.362;6.686;2023-04-24T06:31:16;2.50;;;1.53;;
13067;SDS011;6600;51.362;6.686;2023-04-24T06:33:42;3.30;;;1.80;;
13067;SDS011;6600;51.362;6.686;2023-04-24T06:36:08;2.37;;;1.77;;
13067;SDS011;6600;51.362;6.686;2023-04-24T06:38:33;5.80;;;1.53;;
13067;SDS011;6600;51.362;6.686;2023-04-24T06:40:59;2.13;;;1.63;;
13067;SDS011;6600;51.362;6.686;2023-04-24T06:43:24;2.67;;;1.53;;
13067;SDS011;6600;51.362;6.686;2023-04-24T06:45:50;2.23;;;1.50;;
13067;SDS011;6600;51.362;6.686;2023-04-24T06:48:15;1.27;;;1.13;;
13067;SDS011;6600;51.362;6.686;2023-04-24T06:50:40;1.87;;;1.60;;
13067;SDS011;6600;51.362;6.686;2023-04-24T06:53:06;2.93;;;1.37;;
13067;SDS011;6600;51.362;6.686;2023-04-24T06:55:31;1.97;;;1.30;;
13067;SDS011;6600;51.362;6.686;2023-04-24T06:57:57;1.77;;;1.33;;
13067;SDS011;6600;51.362;6.686;2023-04-24T07:00:22;2.20;;;1.23;;
13067;SDS011;6600;51.362;6.686;2023-04-24T07:02:49;1.50;;;1.40;;
13067;SDS011;6600;51.362;6.686;2023-04-24T07:05:14;1.83;;;1.57;;
13067;SDS011;6600;51.362;6.686;2023-04-24T07:07:40;1.30;;;1.20;;
13067;SDS011;6600;51.362;6.686;2023-04-24T07:10:05;1.00;;;0.70;;
13067;SDS011;6600;51.362;6.686;2023-04-24T07:12:31;0.77;;;0.70;;
13067;SDS011;6600;51.362;6.686;2023-04-24T07:14:57;0.70;;;0.70;;
13067;SDS011;6600;51.362;6.686;2023-04-24T07:17:22;0.47;;;0.47;;
13067;SDS011;6600;51.362;6.686;2023-04-24T07:19:48;0.60;;;0.60;;
13067;SDS011;6600;51.362;6.686;2023-04-24T07:22:13;0.57;;;0.57;;
13067;SDS011;6600;51.362;6.686;2023-04-24T07:24:42;0.40;;;0.40;;
13067;SDS011;6600;51.362;6.686;2023-04-24T07:27:08;1.03;;;1.03;;
13067;SDS011;6600;51.362;6.686;2023-04-24T07:29:33;0.40;;;0.40;;
13067;SDS011;6600;51.362;6.686;2023-04-24T07:31:59;0.10;;;0.10;;
13067;SDS011;6600;51.362;6.686;2023-04-24T07:34:24;0.10;;;0.00;;
13067;SDS011;6600;51.362;6.686;2023-04-24T07:36:50;0.10;;;0.10;;
13067;SDS011;6600;51.362;6.686;2023-04-24T07:39:15;0.63;;;0.17;;
13067;SDS011;6600;51.362;6.686;2023-04-24T07:41:41;0.20;;;0.20;;
13067;SDS011;6600;51.362;6.686;2023-04-24T07:44:06;0.13;;;0.13;;
13067;SDS011;6600;51.362;6.686;2023-04-24T07:46:31;0.00;;;0.00;;
13067;SDS011;6600;51.362;6.686;2023-04-24T07:48:57;0.53;;;0.17;;
13067;SDS011;6600;51.362;6.686;2023-04-24T07:51:24;0.20;;;0.20;;
13067;SDS011;6600;51.362;6.686;2023-04-24T07:53:51;2.53;;;0.40;;
13067;SDS011;6600;51.362;6.686;2023-04-24T07:56:16;0.10;;;0.07;;
13067;SDS011;6600;51.362;6.686;2023-04-24T07:58:42;0.13;;;0.13;;
13067;SDS011;6600;51.362;6.686;2023-04-24T08:01:07;0.00;;;0.00;;
13067;SDS011;6600;51.362;6.686;2023-04-24T08:03:32;0.30;;;0.30;;
13067;SDS011;6600;51.362;6.686;2023-04-24T08:05:58;0.13;;;0.13;;
13067;SDS011;6600;51.362;6.686;2023-04-24T08:08:23;0.80;;;0.50;;
13067;SDS011;6600;51.362;6.686;2023-04-24T08:10:49;0.03;;;0.00;;
13067;SDS011;6600;51.362;6.686;2023-04-24T08:13:14;0.50;;;0.50;;
13067;SDS011;6600;51.362;6.686;2023-04-24T08:15:39;0.17;;;0.17;;
13067;SDS011;6600;51.362;6.686;2023-04-24T08:18:05;0.30;;;0.30;;
13067;SDS011;6600;51.362;6.686;2023-04-24T08:20:30;0.20;;;0.20;;
13067;SDS011;6600;51.362;6.686;2023-04-24T08:22:55;0.13;;;0.13;;
13067;SDS011;6600;51.362;6.686;2023-04-24T08:25:21;0.47;;;0.20;;
13067;SDS011;6600;51.362;6.686;2023-04-24T08:27:48;0.27;;;0.27;;
13067;SDS011;6600;51.362;6.686;2023-04-24T08:30:13;1.13;;;0.30;;
13067;SDS011;6600;51.362;6.686;2023-04-24T08:32:38;1.53;;;0.33;;
13067;SDS011;6600;51.362;6.686;2023-04-24T08:35:04;0.87;;;0.40;;
13067;SDS011;6600;51.362;6.686;2023-04-24T08:37:30;0.93;;;0.30;;
13067;SDS011;6600;51.362;6.686;2023-04-24T08:39:55;0.10;;;0.10;;
13067;SDS011;6600;51.362;6.686;2023-04-24T08:42:21;1.17;;;0.30;;
13067;SDS011;6600;51.362;6.686;2023-04-24T08:44:47;0.30;;;0.27;;
13067;SDS011;6600;51.362;6.686;2023-04-24T08:47:14;0.77;;;0.20;;
13067;SDS011;6600;51.362;6.686;2023-04-24T08:49:40;0.20;;;0.20;;
13067;SDS011;6600;51.362;6.686;2023-04-24T08:52:06;0.53;;;0.53;;
13067;SDS011;6600;51.362;6.686;2023-04-24T08:54:34;0.30;;;0.30;;
13067;SDS011;6600;51.362;6.686;2023-04-24T08:57:01;0.30;;;0.30;;
13067;SDS011;6600;51.362;6.686;2023-04-24T08:59:28;1.37;;;0.97;;
13067;SDS011;6600;51.362;6.686;2023-04-24T09:01:55;0.60;;;0.60;;
13067;SDS011;6600;51.362;6.686;2023-04-24T09:04:21;1.07;;;0.93;;
13067;SDS011;6600;51.362;6.686;2023-04-24T09:06:49;1.47;;;1.10;;
13067;SDS011;6600;51.362;6.686;2023-04-24T09:09:16;0.50;;;0.50;;
13067;SDS011;6600;51.362;6.686;2023-04-24T09:11:43;0.90;;;0.80;;
13067;SDS011;6600;51.362;6.686;2023-04-24T09:14:09;1.40;;;1.30;;
13067;SDS011;6600;51.362;6.686;2023-04-24T09:16:35;1.10;;;1.10;;
13067;SDS011;6600;51.362;6.686;2023-04-24T09:19:00;2.17;;;1.20;;
13067;SDS011;6600;51.362;6.686;2023-04-24T09:21:30;5.27;;;1.53;;
13067;SDS011;6600;51.362;6.686;2023-04-24T09:23:58;4.13;;;1.90;;
13067;SDS011;6600;51.362;6.686;2023-04-24T09:26:32;1.87;;;1.30;;
13067;SDS011;6600;51.362;6.686;2023-04-24T09:29:00;1.50;;;1.20;;
13067;SDS011;6600;51.362;6.686;2023-04-24T09:31:26;2.60;;;1.20;;
13067;SDS011;6600;51.362;6.686;2023-04-24T09:34:11;1.40;;;1.30;;
13067;SDS011;6600;51.362;6.686;2023-04-24T09:36:37;4.50;;;1.67;;
13067;SDS011;6600;51.362;6.686;2023-04-24T09:39:06;2.33;;;1.80;;
13067;SDS011;6600;51.362;6.686;2023-04-24T09:41:33;1.93;;;1.20;;
13067;SDS011;6600;51.362;6.686;2023-04-24T09:44:10;1.97;;;1.30;;
13067;SDS011;6600;51.362;6.686;2023-04-24T09:46:40;2.13;;;1.40;;
13067;SDS011;6600;51.362;6.686;2023-04-24T09:49:07;3.43;;;1.93;;
13067;SDS011;6600;51.362;6.686;2023-04-24T09:51:35;1.87;;;1.57;;
13067;SDS011;6600;51.362;6.686;2023-04-24T09:54:02;2.33;;;1.47;;
13067;SDS011;6600;51.362;6.686;2023-04-24T09:56:29;1.53;;;1.43;;
13067;SDS011;6600;51.362;6.686;2023-04-24T09:59:04;1.43;;;1.33;;
13067;SDS011;6600;51.362;6.686;2023-04-24T10:01:33;1.60;;;1.20;;
13067;SDS011;6600;51.362;6.686;2023-04-24T10:03:59;3.57;;;1.73;;
13067;SDS011;6600;51.362;6.686;2023-04-24T10:06:32;1.10;;;1.00;;
13067;SDS011;6600;51.362;6.686;2023-04-24T10:08:58;2.00;;;0.93;;
13067;SDS011;6600;51.362;6.686;2023-04-24T10:11:26;1.10;;;1.00;;
13067;SDS011;6600;51.362;6.686;2023-04-24T10:13:52;3.37;;;1.57;;
13067;SDS011;6600;51.362;6.686;2023-04-24T10:16:18;1.37;;;1.27;;
13067;SDS011;6600;51.362;6.686;2023-04-24T10:18:46;4.00;;;1.50;;
13067;SDS011;6600;51.362;6.686;2023-04-24T10:21:13;3.07;;;1.30;;
13067;SDS011;6600;51.362;6.686;2023-04-24T10:23:42;1.20;;;1.10;;
13067;SDS011;6600;51.362;6.686;2023-04-24T10:26:12;0.80;;;0.80;;
13067;SDS011;6600;51.362;6.686;2023-04-24T10:28:42;0.83;;;0.83;;
13067;SDS011;6600;51.362;6.686;2023-04-24T10:31:10;3.37;;;0.80;;
13067;SDS011;6600;51.362;6.686;2023-04-24T10:33:36;0.83;;;0.83;;
13067;SDS011;6600;51.362;6.686;2023-04-24T10:36:03;1.63;;;0.90;;
13067;SDS011;6600;51.362;6.686;2023-04-24T10:38:29;1.93;;;1.10;;
13067;SDS011;6600;51.362;6.686;2023-04-24T10:41:11;3.17;;;1.23;;
13067;SDS011;6600;51.362;6.686;2023-04-24T10:43:41;1.67;;;0.83;;
13067;SDS011;6600;51.362;6.686;2023-04-24T10:46:07;2.17;;;1.10;;
13067;SDS011;6600;51.362;6.686;2023-04-24T10:48:35;5.17;;;2.20;;
13067;SDS011;6600;51.362;6.686;2023-04-24T10:51:00;2.10;;;1.20;;
13067;SDS011;6600;51.362;6.686;2023-04-24T10:53:27;3.03;;;1.63;;
13067;SDS011;6600;51.362;6.686;2023-04-24T10:58:24;1.33;;;1.07;;
13067;SDS011;6600;51.362;6.686;2023-04-24T11:01:00;2.43;;;1.57;;
13067;SDS011;6600;51.362;6.686;2023-04-24T11:03:29;1.60;;;1.37;;
13067;SDS011;6600;51.362;6.686;2023-04-24T11:05:57;2.70;;;1.37;;
13067;SDS011;6600;51.362;6.686;2023-04-24T11:11:07;1.67;;;1.57;;
13067;SDS011;6600;51.362;6.686;2023-04-24T11:14:18;3.37;;;1.70;;
13067;SDS011;6600;51.362;6.686;2023-04-24T11:19:21;1.47;;;1.07;;
13067;SDS011;6600;51.362;6.686;2023-04-24T11:22:00;4.70;;;1.30;;
13067;SDS011;6600;51.362;6.686;2023-04-24T11:27:12;2.80;;;1.40;;
13067;SDS011;6600;51.362;6.686;2023-04-24T11:29:40;3.17;;;1.20;;
13067;SDS011;6600;51.362;6.686;2023-04-24T11:32:28;1.47;;;0.80;;
13067;SDS011;6600;51.362;6.686;2023-04-24T11:35:00;2.70;;;1.20;;
13067;SDS011;6600;51.362;6.686;2023-04-24T11:37:27;2.60;;;1.13;;
13067;SDS011;6600;51.362;6.686;2023-04-24T11:39:58;0.87;;;0.67;;
13067;SDS011;6600;51.362;6.686;2023-04-24T11:42:23;1.20;;;1.10;;
13067;SDS011;6600;51.362;6.686;2023-04-24T11:44:51;3.13;;;1.10;;
13067;SDS011;6600;51.362;6.686;2023-04-24T11:47:18;3.10;;;1.23;;
13067;SDS011;6600;51.362;6.686;2023-04-24T11:49:43;3.10;;;1.20;;
13067;SDS011;6600;51.362;6.686;2023-04-24T11:52:08;3.70;;;0.87;;
13067;SDS011;6600;51.362;6.686;2023-04-24T11:54:35;2.23;;;0.80;;
13067;SDS011;6600;51.362;6.686;2023-04-24T11:57:03;1.23;;;1.03;;
13067;SDS011;6600;51.362;6.686;2023-04-24T11:59:34;2.20;;;1.33;;
13067;SDS011;6600;51.362;6.686;2023-04-24T12:02:00;1.10;;;1.00;;
13067;SDS011;6600;51.362;6.686;2023-04-24T12:04:25;2.30;;;0.77;;
13067;SDS011;6600;51.362;6.686;2023-04-24T12:07:03;4.17;;;1.27;;
13067;SDS011;6600;51.362;6.686;2023-04-24T12:09:39;1.17;;;1.07;;
13067;SDS011;6600;51.362;6.686;2023-04-24T12:12:10;0.93;;;0.80;;
13067;SDS011;6600;51.362;6.686;2023-04-24T12:14:49;0.60;;;0.50;;
13067;SDS011;6600;51.362;6.686;2023-04-24T12:17:17;0.50;;;0.50;;
13067;SDS011;6600;51.362;6.686;2023-04-24T12:19:49;0.87;;;0.87;;
13067;SDS011;6600;51.362;6.686;2023-04-24T12:22:15;1.03;;;0.60;;
13067;SDS011;6600;51.362;6.686;2023-04-24T12:27:26;4.83;;;0.83;;
13067;SDS011;6600;51.362;6.686;2023-04-24T12:29:52;1.07;;;0.73;;
13067;SDS011;6600;51.362;6.686;2023-04-24T12:32:19;1.77;;;0.90;;
13067;SDS011;6600;51.362;6.686;2023-04-24T12:34:44;0.83;;;0.60;;
13067;SDS011;6600;51.362;6.686;2023-04-24T12:37:10;1.30;;;0.50;;
13067;SDS011;6600;51.362;6.686;2023-04-24T12:39:36;1.17;;;0.47;;
13067;SDS011;6600;51.362;6.686;2023-04-24T12:42:02;1.17;;;0.53;;
13067;SDS011;6600;51.362;6.686;2023-04-24T12:44:31;0.73;;;0.53;;
13067;SDS011;6600;51.362;6.686;2023-04-24T12:46:59;0.63;;;0.43;;
13067;SDS011;6600;51.362;6.686;2023-04-24T12:49:28;0.90;;;0.90;;
13067;SDS011;6600;51.362;6.686;2023-04-24T12:51:55;0.37;;;0.37;;
13067;SDS011;6600;51.362;6.686;2023-04-24T12:54:20;0.73;;;0.57;;
13067;SDS011;6600;51.362;6.686;2023-04-24T12:56:46;0.50;;;0.33;;
13067;SDS011;6600;51.362;6.686;2023-04-24T12:59:11;0.60;;;0.60;;
13067;SDS011;6600;51.362;6.686;2023-04-24T13:01:36;0.80;;;0.60;;
13067;SDS011;6600;51.362;6.686;2023-04-24T13:04:02;2.00;;;0.87;;
13067;SDS011;6600;51.362;6.686;2023-04-24T13:06:27;0.60;;;0.50;;
13067;SDS011;6600;51.362;6.686;2023-04-24T13:08:52;0.43;;;0.43;;
13067;SDS011;6600;51.362;6.686;2023-04-24T13:11:19;0.30;;;0.30;;
13067;SDS011;6600;51.362;6.686;2023-04-24T13:13:46;0.40;;;0.20;;
13067;SDS011;6600;51.362;6.686;2023-04-24T13:16:11;0.27;;;0.27;;
13067;SDS011;6600;51.362;6.686;2023-04-24T13:18:37;0.40;;;0.40;;
13067;SDS011;6600;51.362;6.686;2023-04-24T13:21:02;0.77;;;0.70;;
13067;SDS011;6600;51.362;6.686;2023-04-24T13:23:27;0.13;;;0.13;;
13067;SDS011;6600;51.362;6.686;2023-04-24T13:25:54;1.27;;;0.40;;
13067;SDS011;6600;51.362;6.686;2023-04-24T13:28:22;0.33;;;0.33;;
13067;SDS011;6600;51.362;6.686;2023-04-24T13:30:47;2.10;;;0.97;;
13067;SDS011;6600;51.362;6.686;2023-04-24T13:33:13;0.50;;;0.50;;
13067;SDS011;6600;51.362;6.686;2023-04-24T13:35:38;1.17;;;0.40;;
13067;SDS011;6600;51.362;6.686;2023-04-24T13:38:04;0.40;;;0.40;;
13067;SDS011;6600;51.362;6.686;2023-04-24T13:40:31;1.17;;;0.40;;
13067;SDS011;6600;51.362;6.686;2023-04-24T13:42:57;0.23;;;0.23;;
13067;SDS011;6600;51.362;6.686;2023-04-24T13:45:22;0.20;;;0.20;;
13067;SDS011;6600;51.362;6.686;2023-04-24T13:47:47;3.03;;;0.40;;
13067;SDS011;6600;51.362;6.686;2023-04-24T13:50:13;0.50;;;0.50;;
13067;SDS011;6600;51.362;6.686;2023-04-24T13:52:38;1.33;;;0.47;;
13067;SDS011;6600;51.362;6.686;2023-04-24T13:55:04;0.20;;;0.20;;
13067;SDS011;6600;51.362;6.686;2023-04-24T13:57:29;0.80;;;0.50;;
13067;SDS011;6600;51.362;6.686;2023-04-24T13:59:56;1.23;;;0.40;;
13067;SDS011;6600;51.362;6.686;2023-04-24T14:02:26;0.33;;;0.33;;
13067;SDS011;6600;51.362;6.686;2023-04-24T14:04:51;0.60;;;0.60;;
13067;SDS011;6600;51.362;6.686;2023-04-24T14:07:17;0.30;;;0.30;;
13067;SDS011;6600;51.362;6.686;2023-04-24T14:09:42;0.30;;;0.30;;
13067;SDS011;6600;51.362;6.686;2023-04-24T14:12:07;0.67;;;0.40;;
13067;SDS011;6600;51.362;6.686;2023-04-24T14:14:33;0.40;;;0.40;;
13067;SDS011;6600;51.362;6.686;2023-04-24T14:16:58;0.30;;;0.30;;
13067;SDS011;6600;51.362;6.686;2023-04-24T14:19:24;0.47;;;0.30;;
13067;SDS011;6600;51.362;6.686;2023-04-24T14:21:49;0.80;;;0.53;;
13067;SDS011;6600;51.362;6.686;2023-04-24T14:24:14;0.30;;;0.30;;
13067;SDS011;6600;51.362;6.686;2023-04-24T14:26:40;0.40;;;0.40;;
13067;SDS011;6600;51.362;6.686;2023-04-24T14:29:06;0.20;;;0.20;;
13067;SDS011;6600;51.362;6.686;2023-04-24T14:31:31;2.50;;;0.37;;
13067;SDS011;6600;51.362;6.686;2023-04-24T14:33:56;0.70;;;0.43;;
13067;SDS011;6600;51.362;6.686;2023-04-24T14:36:22;0.27;;;0.27;;
13067;SDS011;6600;51.362;6.686;2023-04-24T14:38:47;0.20;;;0.20;;
13067;SDS011;6600;51.362;6.686;2023-04-24T14:41:13;1.77;;;0.40;;
13067;SDS011;6600;51.362;6.686;2023-04-24T14:43:39;0.33;;;0.33;;
13067;SDS011;6600;51.362;6.686;2023-04-24T14:46:05;0.20;;;0.20;;
13067;SDS011;6600;51.362;6.686;2023-04-24T14:48:30;0.30;;;0.30;;
13067;SDS011;6600;51.362;6.686;2023-04-24T14:50:56;1.00;;;0.20;;
13067;SDS011;6600;51.362;6.686;2023-04-24T14:53:21;1.70;;;0.67;;
13067;SDS011;6600;51.362;6.686;2023-04-24T14:55:46;0.20;;;0.20;;
13067;SDS011;6600;51.362;6.686;2023-04-24T14:58:12;0.60;;;0.60;;
13067;SDS011;6600;51.362;6.686;2023-04-24T15:00:37;0.87;;;0.30;;
13067;SDS011;6600;51.362;6.686;2023-04-24T15:03:03;2.00;;;0.50;;
13067;SDS011;6600;51.362;6.686;2023-04-24T15:05:28;0.70;;;0.40;;
13067;SDS011;6600;51.362;6.686;2023-04-24T15:07:55;0.63;;;0.40;;